createdAt,value
2023-02-02T00:00:16.140Z,999.60
2023-02-02T00:00:25.510Z,999.63
2023-02-02T00:00:34.910Z,999.73
2023-02-02T00:00:44.351Z,999.80
2023-02-02T00:00:53.748Z,999.74
2023-02-02T00:01:03.151Z,999.78
2023-02-02T00:01:12.547Z,999.73
2023-02-02T00:01:21.937Z,999.67
2023-02-02T00:01:31.381Z,999.67
2023-02-02T00:01:40.766Z,999.69
2023-02-02T00:01:50.170Z,999.71
2023-02-02T00:01:59.612Z,999.73
2023-02-02T00:02:09.013Z,999.77
2023-02-02T00:02:18.413Z,999.77
2023-02-02T00:02:27.878Z,999.67
2023-02-02T00:02:37.265Z,999.77
2023-02-02T00:02:56.094Z,999.81
2023-02-02T00:03:05.426Z,999.74
2023-02-02T00:03:14.806Z,999.73
2023-02-02T00:03:24.191Z,999.81
2023-02-02T00:03:33.653Z,999.81
2023-02-02T00:03:43.076Z,999.76
2023-02-02T00:03:52.510Z,999.76
2023-02-02T00:04:01.932Z,999.63
2023-02-02T00:04:11.308Z,999.78
2023-02-02T00:04:20.648Z,999.77
2023-02-02T00:04:30.037Z,999.82
2023-02-02T00:04:39.452Z,999.72
2023-02-02T00:04:48.882Z,999.85
2023-02-02T00:04:58.266Z,999.84
2023-02-02T00:05:07.665Z,999.91
2023-02-02T00:05:26.459Z,999.91
2023-02-02T00:05:35.847Z,999.88
2023-02-02T00:05:45.285Z,999.82
2023-02-02T00:05:54.710Z,999.78
2023-02-02T00:06:04.094Z,999.84
2023-02-02T00:06:13.501Z,999.87
2023-02-02T00:06:22.904Z,999.90
2023-02-02T00:06:32.317Z,999.87
2023-02-02T00:06:41.723Z,999.84
2023-02-02T00:06:51.114Z,999.86
2023-02-02T00:07:00.544Z,999.81
2023-02-02T00:07:09.981Z,999.80
2023-02-02T00:07:19.383Z,999.88
2023-02-02T00:07:28.764Z,999.89
2023-02-02T00:07:38.175Z,999.95
2023-02-02T00:07:47.588Z,999.88
2023-02-02T00:08:06.363Z,999.90
2023-02-02T00:08:15.750Z,999.89
2023-02-02T00:08:25.147Z,999.93
2023-02-02T00:08:34.542Z,999.94
2023-02-02T00:08:43.951Z,999.91
2023-02-02T00:08:53.385Z,999.96
2023-02-02T00:09:02.806Z,999.89
2023-02-02T00:09:12.187Z,999.94
2023-02-02T00:09:21.567Z,999.97
2023-02-02T00:09:30.991Z,999.97
2023-02-02T00:09:40.356Z,999.94
2023-02-02T00:09:49.758Z,999.98
2023-02-02T00:09:59.154Z,999.91
2023-02-02T00:10:08.569Z,999.99
2023-02-02T00:10:17.956Z,999.98
2023-02-02T00:10:27.356Z,1000.08
2023-02-02T00:10:46.163Z,999.91
2023-02-02T00:10:55.577Z,999.88
2023-02-02T00:11:04.946Z,999.95
2023-02-02T00:11:14.395Z,999.87
2023-02-02T00:11:23.794Z,1000.05
2023-02-02T00:11:33.242Z,999.93
2023-02-02T00:11:42.635Z,999.99
2023-02-02T00:11:52.098Z,999.91
2023-02-02T00:12:01.566Z,1000.00
2023-02-02T00:12:10.970Z,999.95
2023-02-02T00:12:20.379Z,1000.08
2023-02-02T00:12:29.765Z,1000.06
2023-02-02T00:12:39.142Z,999.98
2023-02-02T00:12:48.605Z,1000.11
2023-02-02T00:12:58.004Z,999.95
2023-02-02T00:13:07.393Z,1000.03
2023-02-02T00:13:26.168Z,1000.03
2023-02-02T00:13:35.562Z,999.84
2023-02-02T00:13:44.954Z,999.97
2023-02-02T00:13:54.365Z,1000.10
2023-02-02T00:14:03.770Z,1000.08
2023-02-02T00:14:13.158Z,1000.05
2023-02-02T00:14:22.540Z,1000.14
2023-02-02T00:14:31.943Z,1000.17
2023-02-02T00:14:41.374Z,1000.08
2023-02-02T00:14:50.769Z,1000.12
2023-02-02T00:15:00.177Z,1000.16
2023-02-02T00:15:09.578Z,1000.07
2023-02-02T00:15:18.965Z,1000.03
2023-02-02T00:15:28.354Z,1000.04
2023-02-02T00:15:37.746Z,1000.05
2023-02-02T00:15:47.185Z,1000.14
2023-02-02T00:16:06.020Z,1000.06
2023-02-02T00:16:15.409Z,1000.09
2023-02-02T00:16:24.815Z,1000.04
2023-02-02T00:16:34.267Z,1000.14
2023-02-02T00:16:43.583Z,1000.07
2023-02-02T00:16:53.009Z,1000.19
2023-02-02T00:17:02.400Z,1000.22
2023-02-02T00:17:11.795Z,1000.13
2023-02-02T00:17:21.198Z,1000.21
2023-02-02T00:17:30.607Z,1000.23
2023-02-02T00:17:40.028Z,1000.20
2023-02-02T00:17:49.430Z,1000.25
2023-02-02T00:17:58.824Z,1000.21
2023-02-02T00:18:08.232Z,1000.20
2023-02-02T00:18:17.639Z,1000.23
2023-02-02T00:18:36.419Z,1000.16
2023-02-02T00:18:45.859Z,1000.20
2023-02-02T00:18:55.262Z,1000.16
2023-02-02T00:19:04.665Z,1000.21
2023-02-02T00:19:14.060Z,1000.16
2023-02-02T00:19:23.465Z,1000.22
2023-02-02T00:19:32.854Z,1000.25
2023-02-02T00:19:42.264Z,1000.28
2023-02-02T00:19:51.688Z,1000.32
2023-02-02T00:20:01.099Z,1000.27
2023-02-02T00:20:10.492Z,1000.17
2023-02-02T00:20:19.889Z,1000.25
2023-02-02T00:20:29.262Z,1000.46
2023-02-02T00:20:38.696Z,1000.30
2023-02-02T00:20:48.109Z,1000.32
2023-02-02T00:20:57.516Z,1000.20
2023-02-02T00:21:16.337Z,1000.42
2023-02-02T00:21:25.747Z,1000.34
2023-02-02T00:21:35.141Z,1000.33
2023-02-02T00:21:44.535Z,1000.16
2023-02-02T00:21:53.920Z,1000.29
2023-02-02T00:22:03.350Z,1000.24
2023-02-02T00:22:12.748Z,1000.21
2023-02-02T00:22:22.168Z,1000.28
2023-02-02T00:22:31.590Z,1000.36
2023-02-02T00:22:40.991Z,1000.36
2023-02-02T00:22:50.398Z,1000.41
2023-02-02T00:22:59.833Z,1000.40
2023-02-02T00:23:09.231Z,1000.36
2023-02-02T00:23:18.644Z,1000.28
2023-02-02T00:23:28.015Z,1000.44
2023-02-02T00:23:37.438Z,1000.42
2023-02-02T00:23:56.282Z,1000.51
2023-02-02T00:24:05.670Z,1000.38
2023-02-02T00:24:15.059Z,1000.39
2023-02-02T00:24:24.464Z,1000.34
2023-02-02T00:24:33.843Z,1000.33
2023-02-02T00:24:43.259Z,1000.42
2023-02-02T00:24:52.642Z,1000.46
2023-02-02T00:25:02.033Z,1000.36
2023-02-02T00:25:11.436Z,1000.46
2023-02-02T00:25:20.904Z,1000.48
2023-02-02T00:25:30.266Z,1000.56
2023-02-02T00:25:39.652Z,1000.49
2023-02-02T00:25:49.044Z,1000.52
2023-02-02T00:25:58.431Z,1000.57
2023-02-02T00:26:07.816Z,1000.47
2023-02-02T00:26:17.254Z,1000.56
2023-02-02T00:26:36.091Z,1000.52
2023-02-02T00:26:45.448Z,1000.53
2023-02-02T00:26:54.856Z,1000.60
2023-02-02T00:27:04.259Z,1000.41
2023-02-02T00:27:13.654Z,1000.49
2023-02-02T00:27:23.059Z,1000.47
2023-02-02T00:27:32.607Z,1000.53
2023-02-02T00:27:42.009Z,1000.64
2023-02-02T00:27:51.401Z,1000.50
2023-02-02T00:28:00.782Z,1000.55
2023-02-02T00:28:10.170Z,1000.50
2023-02-02T00:28:19.572Z,1000.56
2023-02-02T00:28:28.959Z,1000.61
2023-02-02T00:28:38.353Z,1000.54
2023-02-02T00:28:47.764Z,1000.62
2023-02-02T00:28:57.196Z,1000.56
2023-02-02T00:29:16.005Z,1000.55
2023-02-02T00:29:25.414Z,1000.57
2023-02-02T00:29:34.817Z,1000.54
2023-02-02T00:29:44.226Z,1000.55
2023-02-02T00:29:53.641Z,1000.57
2023-02-02T00:30:03.029Z,1000.63
2023-02-02T00:30:12.444Z,1000.58
2023-02-02T00:30:21.859Z,1000.64
2023-02-02T00:30:31.315Z,1000.58
2023-02-02T00:30:40.756Z,1000.61
2023-02-02T00:30:50.120Z,1000.61
2023-02-02T00:30:59.658Z,1000.60
2023-02-02T00:31:09.035Z,1000.62
2023-02-02T00:31:18.457Z,1000.56
2023-02-02T00:31:27.805Z,1000.62
2023-02-02T00:31:37.214Z,1000.66
2023-02-02T00:31:55.987Z,1000.61
2023-02-02T00:32:05.400Z,1000.70
2023-02-02T00:32:14.835Z,1000.72
2023-02-02T00:32:24.241Z,1000.60
2023-02-02T00:32:33.626Z,1000.70
2023-02-02T00:32:43.060Z,1000.65
2023-02-02T00:32:52.461Z,1000.54
2023-02-02T00:33:01.874Z,1000.56
2023-02-02T00:33:11.326Z,1000.68
2023-02-02T00:33:20.715Z,1000.65
2023-02-02T00:33:30.111Z,1000.77
2023-02-02T00:33:39.505Z,1000.70
2023-02-02T00:33:48.918Z,1000.79
2023-02-02T00:33:58.324Z,1000.74
2023-02-02T00:34:07.714Z,1000.85
2023-02-02T00:34:17.131Z,1000.83
2023-02-02T00:34:35.916Z,1000.60
2023-02-02T00:34:45.318Z,1000.71
2023-02-02T00:34:54.764Z,1000.81
2023-02-02T00:35:04.152Z,1000.69
2023-02-02T00:35:13.637Z,1000.67
2023-02-02T00:35:23.319Z,1000.71
2023-02-02T00:35:32.378Z,1000.79
2023-02-02T00:35:41.756Z,1000.87
2023-02-02T00:35:51.139Z,1000.90
2023-02-02T00:36:00.526Z,1000.76
2023-02-02T00:36:09.910Z,1000.86
2023-02-02T00:36:19.311Z,1000.75
2023-02-02T00:36:28.719Z,1000.73
2023-02-02T00:36:38.147Z,1000.84
2023-02-02T00:36:47.548Z,1000.80
2023-02-02T00:37:06.401Z,1000.84
2023-02-02T00:37:15.794Z,1000.89
2023-02-02T00:37:25.198Z,1000.93
2023-02-02T00:37:34.594Z,1000.84
2023-02-02T00:37:43.986Z,1000.93
2023-02-02T00:37:53.404Z,1000.85
2023-02-02T00:38:02.787Z,1000.99
2023-02-02T00:38:12.175Z,1000.98
2023-02-02T00:38:21.562Z,1000.74
2023-02-02T00:38:30.963Z,1000.95
2023-02-02T00:38:40.356Z,1001.08
2023-02-02T00:38:49.753Z,1001.02
2023-02-02T00:38:59.144Z,1001.02
2023-02-02T00:39:08.565Z,1001.07
2023-02-02T00:39:17.975Z,1001.01
2023-02-02T00:39:27.363Z,1001.00
2023-02-02T00:39:46.131Z,1000.99
2023-02-02T00:39:55.556Z,1000.96
2023-02-02T00:40:04.975Z,1000.96
2023-02-02T00:40:14.401Z,1001.13
2023-02-02T00:40:23.777Z,1001.07
2023-02-02T00:40:33.194Z,1001.11
2023-02-02T00:40:42.589Z,1001.10
2023-02-02T00:40:51.969Z,1001.02
2023-02-02T00:41:01.389Z,1001.04
2023-02-02T00:41:10.813Z,1001.04
2023-02-02T00:41:20.169Z,1001.05
2023-02-02T00:41:29.565Z,1001.09
2023-02-02T00:41:38.972Z,1001.06
2023-02-02T00:41:48.411Z,1001.08
2023-02-02T00:41:57.775Z,1001.19
2023-02-02T00:42:07.194Z,1001.13
2023-02-02T00:42:25.999Z,1001.19
2023-02-02T00:42:35.389Z,1001.13
2023-02-02T00:42:44.784Z,1001.18
2023-02-02T00:42:54.164Z,1001.14
2023-02-02T00:43:03.581Z,1001.25
2023-02-02T00:43:12.975Z,1001.13
2023-02-02T00:43:22.353Z,1001.25
2023-02-02T00:43:31.748Z,1001.15
2023-02-02T00:43:41.127Z,1001.21
2023-02-02T00:43:50.523Z,1001.22
2023-02-02T00:43:59.933Z,1001.22
2023-02-02T00:44:09.323Z,1001.23
2023-02-02T00:44:18.740Z,1001.35
2023-02-02T00:44:28.136Z,1001.33
2023-02-02T00:44:37.552Z,1001.29
2023-02-02T00:44:56.379Z,1001.18
2023-02-02T00:45:05.773Z,1001.25
2023-02-02T00:45:15.170Z,1001.27
2023-02-02T00:45:24.996Z,1001.23
2023-02-02T00:45:33.977Z,1001.24
2023-02-02T00:45:43.367Z,1001.32
2023-02-02T00:45:52.786Z,1001.33
2023-02-02T00:46:02.223Z,1001.34
2023-02-02T00:46:11.537Z,1001.23
2023-02-02T00:46:20.944Z,1001.35
2023-02-02T00:46:30.316Z,1001.32
2023-02-02T00:46:39.720Z,1001.30
2023-02-02T00:46:49.102Z,1001.42
2023-02-02T00:46:58.504Z,1001.36
2023-02-02T00:47:07.916Z,1001.33
2023-02-02T00:47:17.330Z,1001.36
2023-02-02T00:47:36.136Z,1001.43
2023-02-02T00:47:45.522Z,1001.35
2023-02-02T00:47:54.908Z,1001.40
2023-02-02T00:48:04.309Z,1001.37
2023-02-02T00:48:13.734Z,1001.39
2023-02-02T00:48:23.137Z,1001.40
2023-02-02T00:48:32.526Z,1001.38
2023-02-02T00:48:41.923Z,1001.37
2023-02-02T00:48:51.329Z,1001.45
2023-02-02T00:49:00.739Z,1001.48
2023-02-02T00:49:10.148Z,1001.44
2023-02-02T00:49:19.549Z,1001.46
2023-02-02T00:49:28.943Z,1001.37
2023-02-02T00:49:38.332Z,1001.49
2023-02-02T00:49:47.737Z,1001.45
2023-02-02T00:49:57.132Z,1001.50
2023-02-02T00:50:15.944Z,1001.46
2023-02-02T00:50:25.343Z,1001.43
2023-02-02T00:50:34.727Z,1001.47
2023-02-02T00:50:44.100Z,1001.44
2023-02-02T00:50:53.483Z,1001.40
2023-02-02T00:51:02.894Z,1001.55
2023-02-02T00:51:12.302Z,1001.46
2023-02-02T00:51:21.669Z,1001.48
2023-02-02T00:51:31.057Z,1001.48
2023-02-02T00:51:40.450Z,1001.53
2023-02-02T00:51:49.876Z,1001.52
2023-02-02T00:51:59.286Z,1001.58
2023-02-02T00:52:08.698Z,1001.58
2023-02-02T00:52:18.105Z,1001.59
2023-02-02T00:52:27.514Z,1001.52
2023-02-02T00:52:46.300Z,1001.70
2023-02-02T00:52:55.697Z,1001.62
2023-02-02T00:53:05.128Z,1001.65
2023-02-02T00:53:14.505Z,1001.63
2023-02-02T00:53:23.900Z,1001.73
2023-02-02T00:53:33.299Z,1001.71
2023-02-02T00:53:42.698Z,1001.63
2023-02-02T00:53:52.108Z,1001.62
2023-02-02T00:54:01.508Z,1001.64
2023-02-02T00:54:10.910Z,1001.63
2023-02-02T00:54:20.311Z,1001.72
2023-02-02T00:54:29.717Z,1001.66
2023-02-02T00:54:39.109Z,1001.63
2023-02-02T00:54:48.517Z,1001.76
2023-02-02T00:54:57.914Z,1001.66
2023-02-02T00:55:07.319Z,1001.66
2023-02-02T00:55:26.418Z,1001.78
2023-02-02T00:55:35.496Z,1001.76
2023-02-02T00:55:44.890Z,1001.69
2023-02-02T00:55:54.294Z,1001.70
2023-02-02T00:56:03.695Z,1001.76
2023-02-02T00:56:13.073Z,1001.76
2023-02-02T00:56:22.477Z,1001.76
2023-02-02T00:56:31.881Z,1001.86
2023-02-02T00:56:41.359Z,1001.79
2023-02-02T00:56:50.761Z,1001.82
2023-02-02T00:57:00.167Z,1001.83
2023-02-02T00:57:09.587Z,1001.87
2023-02-02T00:57:18.987Z,1001.87
2023-02-02T00:57:28.391Z,1001.86
2023-02-02T00:57:37.832Z,1001.83
2023-02-02T00:57:47.232Z,1001.84
2023-02-02T00:58:06.093Z,1001.81
2023-02-02T00:58:15.478Z,1001.79
2023-02-02T00:58:24.873Z,1001.79
2023-02-02T00:58:34.264Z,1001.75
2023-02-02T00:58:43.664Z,1001.69
2023-02-02T00:58:53.086Z,1001.75
2023-02-02T00:59:02.478Z,1001.71
2023-02-02T00:59:11.882Z,1001.84
2023-02-02T00:59:21.318Z,1001.82
2023-02-02T00:59:30.709Z,1001.83
2023-02-02T00:59:40.100Z,1001.88
2023-02-02T00:59:49.519Z,1001.89
2023-02-02T00:59:58.905Z,1001.85
2023-02-02T01:00:08.303Z,1001.83
2023-02-02T01:00:17.724Z,1001.84
2023-02-02T01:00:27.149Z,1001.95
2023-02-02T01:00:46.044Z,1001.82
2023-02-02T01:00:55.454Z,1001.90
2023-02-02T01:01:04.828Z,1001.81
2023-02-02T01:01:14.210Z,1001.84
2023-02-02T01:01:23.715Z,1001.95
2023-02-02T01:01:32.993Z,1001.83
2023-02-02T01:01:42.426Z,1001.94
2023-02-02T01:01:51.855Z,1001.88
2023-02-02T01:02:01.245Z,1001.92
2023-02-02T01:02:10.638Z,1001.95
2023-02-02T01:02:20.016Z,1001.93
2023-02-02T01:02:29.451Z,1002.02
2023-02-02T01:02:38.804Z,1001.89
2023-02-02T01:02:48.208Z,1001.92
2023-02-02T01:02:57.617Z,1001.98
2023-02-02T01:03:16.432Z,1001.95
2023-02-02T01:03:25.816Z,1001.96
2023-02-02T01:03:35.233Z,1001.93
2023-02-02T01:03:44.660Z,1001.89
2023-02-02T01:03:54.098Z,1001.97
2023-02-02T01:04:03.531Z,1001.96
2023-02-02T01:04:12.920Z,1002.02
2023-02-02T01:04:22.308Z,1001.98
2023-02-02T01:04:31.705Z,1002.05
2023-02-02T01:04:41.118Z,1002.07
2023-02-02T01:04:50.506Z,1001.91
2023-02-02T01:04:59.926Z,1002.04
2023-02-02T01:05:09.322Z,1001.97
2023-02-02T01:05:18.742Z,1001.92
2023-02-02T01:05:28.132Z,1001.94
2023-02-02T01:05:37.520Z,1001.90
2023-02-02T01:05:56.306Z,1002.05
2023-02-02T01:06:05.682Z,1002.01
2023-02-02T01:06:15.078Z,1001.98
2023-02-02T01:06:24.482Z,1001.99
2023-02-02T01:06:33.874Z,1001.90
2023-02-02T01:06:43.274Z,1001.94
2023-02-02T01:06:52.673Z,1002.03
2023-02-02T01:07:02.061Z,1002.00
2023-02-02T01:07:11.504Z,1002.05
2023-02-02T01:07:20.903Z,1002.02
2023-02-02T01:07:30.325Z,1002.07
2023-02-02T01:07:39.733Z,1002.09
2023-02-02T01:07:49.138Z,1002.13
2023-02-02T01:07:58.580Z,1002.09
2023-02-02T01:08:07.967Z,1002.13
2023-02-02T01:08:17.408Z,1002.11
2023-02-02T01:08:36.181Z,1002.03
2023-02-02T01:08:45.589Z,1002.10
2023-02-02T01:08:54.986Z,1002.14
2023-02-02T01:09:04.385Z,1002.21
2023-02-02T01:09:13.796Z,1002.15
2023-02-02T01:09:23.187Z,1002.08
2023-02-02T01:09:32.600Z,1002.08
2023-02-02T01:09:42.003Z,1002.16
2023-02-02T01:09:51.413Z,1002.16
2023-02-02T01:10:00.816Z,1002.17
2023-02-02T01:10:10.227Z,1002.15
2023-02-02T01:10:19.617Z,1002.13
2023-02-02T01:10:29.015Z,1002.17
2023-02-02T01:10:38.414Z,1002.13
2023-02-02T01:10:47.811Z,1002.16
2023-02-02T01:10:57.217Z,1002.16
2023-02-02T01:11:15.984Z,1002.21
2023-02-02T01:11:25.401Z,1002.14
2023-02-02T01:11:34.781Z,1002.06
2023-02-02T01:11:44.152Z,1002.22
2023-02-02T01:11:53.567Z,1002.16
2023-02-02T01:12:02.973Z,1002.13
2023-02-02T01:12:12.416Z,1002.28
2023-02-02T01:12:21.831Z,1002.04
2023-02-02T01:12:31.210Z,1002.20
2023-02-02T01:12:40.620Z,1002.33
2023-02-02T01:12:50.030Z,1002.17
2023-02-02T01:12:59.420Z,1002.10
2023-02-02T01:13:08.793Z,1002.09
2023-02-02T01:13:18.189Z,1002.17
2023-02-02T01:13:27.602Z,1002.20
2023-02-02T01:13:46.393Z,1002.14
2023-02-02T01:13:55.781Z,1002.24
2023-02-02T01:14:05.182Z,1002.25
2023-02-02T01:14:14.573Z,1002.07
2023-02-02T01:14:23.972Z,1002.24
2023-02-02T01:14:33.392Z,1002.28
2023-02-02T01:14:42.788Z,1002.32
2023-02-02T01:14:52.182Z,1002.24
2023-02-02T01:15:01.636Z,1002.24
2023-02-02T01:15:11.034Z,1002.34
2023-02-02T01:15:20.463Z,1002.31
2023-02-02T01:15:29.911Z,1002.25
2023-02-02T01:15:39.330Z,1002.36
2023-02-02T01:15:48.750Z,1002.30
2023-02-02T01:15:58.153Z,1002.30
2023-02-02T01:16:07.648Z,1002.32
2023-02-02T01:16:26.437Z,1002.31
2023-02-02T01:16:35.882Z,1002.32
2023-02-02T01:16:45.330Z,1002.31
2023-02-02T01:16:54.571Z,1002.38
2023-02-02T01:17:04.000Z,1002.42
2023-02-02T01:17:13.432Z,1002.40
2023-02-02T01:17:22.809Z,1002.39
2023-02-02T01:17:32.212Z,1002.32
2023-02-02T01:17:41.607Z,1002.40
2023-02-02T01:17:51.005Z,1002.19
2023-02-02T01:18:00.419Z,1002.37
2023-02-02T01:18:09.827Z,1002.40
2023-02-02T01:18:19.216Z,1002.33
2023-02-02T01:18:28.603Z,1002.47
2023-02-02T01:18:38.012Z,1002.40
2023-02-02T01:18:47.395Z,1002.40
2023-02-02T01:19:06.171Z,1002.39
2023-02-02T01:19:15.584Z,1002.41
2023-02-02T01:19:24.998Z,1002.35
2023-02-02T01:19:34.413Z,1002.40
2023-02-02T01:19:43.835Z,1002.41
2023-02-02T01:19:53.243Z,1002.43
2023-02-02T01:20:02.667Z,1002.41
2023-02-02T01:20:12.058Z,1002.40
2023-02-02T01:20:21.453Z,1002.47
2023-02-02T01:20:30.858Z,1002.44
2023-02-02T01:20:40.260Z,1002.43
2023-02-02T01:20:49.670Z,1002.50
2023-02-02T01:20:59.064Z,1002.53
2023-02-02T01:21:08.474Z,1002.46
2023-02-02T01:21:17.883Z,1002.47
2023-02-02T01:21:27.265Z,1002.60
2023-02-02T01:21:46.083Z,1002.47
2023-02-02T01:21:55.507Z,1002.59
2023-02-02T01:22:04.978Z,1002.52
2023-02-02T01:22:14.398Z,1002.57
2023-02-02T01:22:23.785Z,1002.60
2023-02-02T01:22:33.227Z,1002.60
2023-02-02T01:22:42.629Z,1002.57
2023-02-02T01:22:52.056Z,1002.48
2023-02-02T01:23:01.475Z,1002.42
2023-02-02T01:23:10.863Z,1002.41
2023-02-02T01:23:20.278Z,1002.61
2023-02-02T01:23:29.637Z,1002.51
2023-02-02T01:23:39.031Z,1002.60
2023-02-02T01:23:48.483Z,1002.68
2023-02-02T01:23:57.892Z,1002.60
2023-02-02T01:24:07.298Z,1002.59
2023-02-02T01:24:26.087Z,1002.51
2023-02-02T01:24:35.507Z,1002.52
2023-02-02T01:24:44.904Z,1002.60
2023-02-02T01:24:54.308Z,1002.71
2023-02-02T01:25:03.707Z,1002.55
2023-02-02T01:25:13.092Z,1002.64
2023-02-02T01:25:22.763Z,1002.64
2023-02-02T01:25:31.941Z,1002.62
2023-02-02T01:25:41.367Z,1002.57
2023-02-02T01:25:50.781Z,1002.68
2023-02-02T01:26:00.192Z,1002.58
2023-02-02T01:26:09.590Z,1002.59
2023-02-02T01:26:19.029Z,1002.56
2023-02-02T01:26:28.373Z,1002.71
2023-02-02T01:26:37.750Z,1002.78
2023-02-02T01:26:47.193Z,1002.68
2023-02-02T01:27:05.972Z,1002.69
2023-02-02T01:27:15.392Z,1002.75
2023-02-02T01:27:24.778Z,1002.78
2023-02-02T01:27:34.155Z,1002.69
2023-02-02T01:27:43.555Z,1002.79
2023-02-02T01:27:52.939Z,1002.72
2023-02-02T01:28:02.374Z,1002.73
2023-02-02T01:28:11.778Z,1002.77
2023-02-02T01:28:21.180Z,1002.81
2023-02-02T01:28:30.562Z,1002.68
2023-02-02T01:28:39.973Z,1002.79
2023-02-02T01:28:49.424Z,1002.78
2023-02-02T01:28:58.802Z,1002.80
2023-02-02T01:29:08.171Z,1002.71
2023-02-02T01:29:17.594Z,1002.80
2023-02-02T01:29:36.375Z,1002.74
2023-02-02T01:29:45.798Z,1002.77
2023-02-02T01:29:55.201Z,1002.78
2023-02-02T01:30:04.598Z,1002.82
2023-02-02T01:30:13.998Z,1002.79
2023-02-02T01:30:23.394Z,1002.90
2023-02-02T01:30:32.768Z,1002.73
2023-02-02T01:30:42.213Z,1002.83
2023-02-02T01:30:51.644Z,1002.82
2023-02-02T01:31:01.010Z,1002.81
2023-02-02T01:31:10.400Z,1002.82
2023-02-02T01:31:19.822Z,1002.89
2023-02-02T01:31:29.201Z,1002.83
2023-02-02T01:31:38.671Z,1002.86
2023-02-02T01:31:48.061Z,1002.82
2023-02-02T01:31:57.426Z,1002.90
2023-02-02T01:32:16.311Z,1002.73
2023-02-02T01:32:25.734Z,1002.81
2023-02-02T01:32:35.152Z,1002.87
2023-02-02T01:32:44.532Z,1002.71
2023-02-02T01:32:53.925Z,1002.87
2023-02-02T01:33:03.328Z,1002.89
2023-02-02T01:33:12.739Z,1002.95
2023-02-02T01:33:22.138Z,1002.94
2023-02-02T01:33:31.532Z,1002.82
2023-02-02T01:33:40.937Z,1002.90
2023-02-02T01:33:50.364Z,1002.86
2023-02-02T01:33:59.774Z,1002.91
2023-02-02T01:34:09.164Z,1002.87
2023-02-02T01:34:18.577Z,1002.93
2023-02-02T01:34:27.964Z,1002.94
2023-02-02T01:34:37.387Z,1002.90
2023-02-02T01:34:56.217Z,1002.94
2023-02-02T01:35:05.628Z,1002.93
2023-02-02T01:35:15.031Z,1002.93
2023-02-02T01:35:24.760Z,1002.99
2023-02-02T01:35:33.845Z,1002.89
2023-02-02T01:35:43.262Z,1003.01
2023-02-02T01:35:52.673Z,1002.91
2023-02-02T01:36:02.073Z,1002.87
2023-02-02T01:36:11.488Z,1002.97
2023-02-02T01:36:20.884Z,1002.93
2023-02-02T01:36:30.280Z,1002.89
2023-02-02T01:36:39.685Z,1002.98
2023-02-02T01:36:49.107Z,1002.99
2023-02-02T01:36:58.503Z,1003.03
2023-02-02T01:37:07.897Z,1002.88
2023-02-02T01:37:17.351Z,1002.88
2023-02-02T01:37:36.138Z,1002.86
2023-02-02T01:37:45.535Z,1002.95
2023-02-02T01:37:54.934Z,1002.98
2023-02-02T01:38:04.332Z,1002.98
2023-02-02T01:38:13.716Z,1002.99
2023-02-02T01:38:23.112Z,1002.98
2023-02-02T01:38:32.566Z,1002.97
2023-02-02T01:38:41.950Z,1003.03
2023-02-02T01:38:51.366Z,1002.93
2023-02-02T01:39:00.759Z,1002.88
2023-02-02T01:39:10.170Z,1002.92
2023-02-02T01:39:19.607Z,1002.97
2023-02-02T01:39:29.025Z,1003.01
2023-02-02T01:39:38.421Z,1003.10
2023-02-02T01:39:47.849Z,1002.99
2023-02-02T01:39:57.260Z,1003.11
2023-02-02T01:40:16.061Z,1003.14
2023-02-02T01:40:25.467Z,1002.98
2023-02-02T01:40:34.868Z,1003.04
2023-02-02T01:40:44.303Z,1003.15
2023-02-02T01:40:53.740Z,1003.02
2023-02-02T01:41:03.159Z,1003.04
2023-02-02T01:41:12.562Z,1003.03
2023-02-02T01:41:21.966Z,1003.12
2023-02-02T01:41:31.449Z,1003.02
2023-02-02T01:41:40.841Z,1003.16
2023-02-02T01:41:50.265Z,1003.15
2023-02-02T01:41:59.666Z,1003.17
2023-02-02T01:42:09.209Z,1003.16
2023-02-02T01:42:18.632Z,1003.16
2023-02-02T01:42:28.032Z,1003.16
2023-02-02T01:42:37.428Z,1003.14
2023-02-02T01:42:56.253Z,1003.17
2023-02-02T01:43:05.632Z,1003.17
2023-02-02T01:43:15.132Z,1003.16
2023-02-02T01:43:24.513Z,1003.27
2023-02-02T01:43:33.924Z,1003.24
2023-02-02T01:43:43.370Z,1003.21
2023-02-02T01:43:52.761Z,1003.11
2023-02-02T01:44:05.098Z,1003.30
2023-02-02T01:44:14.521Z,1003.23
2023-02-02T01:44:23.927Z,1003.27
2023-02-02T01:44:33.323Z,1003.14
2023-02-02T01:44:42.709Z,1003.17
2023-02-02T01:44:52.104Z,1003.21
2023-02-02T01:45:01.508Z,1003.24
2023-02-02T01:45:10.926Z,1003.19
2023-02-02T01:45:20.330Z,1003.35
2023-02-02T01:45:29.747Z,1003.25
2023-02-02T01:45:39.183Z,1003.29
2023-02-02T01:45:48.584Z,1003.28
2023-02-02T01:45:57.999Z,1003.10
2023-02-02T01:46:07.393Z,1003.13
2023-02-02T01:46:26.194Z,1003.27
2023-02-02T01:46:35.628Z,1003.31
2023-02-02T01:46:44.975Z,1003.27
2023-02-02T01:46:54.417Z,1003.23
2023-02-02T01:47:03.768Z,1003.33
2023-02-02T01:47:13.159Z,1003.32
2023-02-02T01:47:22.671Z,1003.32
2023-02-02T01:47:32.077Z,1003.32
2023-02-02T01:47:41.526Z,1003.32
2023-02-02T01:47:50.928Z,1003.27
2023-02-02T01:48:00.322Z,1003.39
2023-02-02T01:48:09.710Z,1003.44
2023-02-02T01:48:19.115Z,1003.42
2023-02-02T01:48:28.512Z,1003.38
2023-02-02T01:48:37.927Z,1003.31
2023-02-02T01:48:47.332Z,1003.39
2023-02-02T01:49:06.143Z,1003.34
2023-02-02T01:49:15.539Z,1003.30
2023-02-02T01:49:24.962Z,1003.45
2023-02-02T01:49:34.342Z,1003.33
2023-02-02T01:49:43.737Z,1003.40
2023-02-02T01:49:53.143Z,1003.28
2023-02-02T01:50:02.647Z,1003.33
2023-02-02T01:50:12.066Z,1003.25
2023-02-02T01:50:21.438Z,1003.27
2023-02-02T01:50:30.830Z,1003.43
2023-02-02T01:50:40.221Z,1003.31
2023-02-02T01:50:49.613Z,1003.36
2023-02-02T01:50:59.020Z,1003.36
2023-02-02T01:51:08.455Z,1003.36
2023-02-02T01:51:17.876Z,1003.38
2023-02-02T01:51:27.311Z,1003.31
2023-02-02T01:51:46.102Z,1003.34
2023-02-02T01:51:55.495Z,1003.31
2023-02-02T01:52:04.930Z,1003.36
2023-02-02T01:52:14.336Z,1003.38
2023-02-02T01:52:23.756Z,1003.47
2023-02-02T01:52:33.143Z,1003.37
2023-02-02T01:52:42.544Z,1003.34
2023-02-02T01:52:51.986Z,1003.38
2023-02-02T01:53:01.420Z,1003.32
2023-02-02T01:53:10.844Z,1003.39
2023-02-02T01:53:20.244Z,1003.44
2023-02-02T01:53:29.635Z,1003.49
2023-02-02T01:53:39.052Z,1003.43
2023-02-02T01:53:48.471Z,1003.50
2023-02-02T01:53:57.864Z,1003.46
2023-02-02T01:54:07.270Z,1003.48
2023-02-02T01:54:26.047Z,1003.42
2023-02-02T01:54:35.479Z,1003.53
2023-02-02T01:54:44.959Z,1003.46
2023-02-02T01:54:54.351Z,1003.46
2023-02-02T01:55:03.737Z,1003.46
2023-02-02T01:55:13.148Z,1003.42
2023-02-02T01:55:22.712Z,1003.41
2023-02-02T01:55:31.990Z,1003.48
2023-02-02T01:55:41.438Z,1003.40
2023-02-02T01:55:50.837Z,1003.49
2023-02-02T01:56:00.237Z,1003.46
2023-02-02T01:56:09.619Z,1003.52
2023-02-02T01:56:19.082Z,1003.55
2023-02-02T01:56:28.490Z,1003.54
2023-02-02T01:56:37.877Z,1003.56
2023-02-02T01:56:47.293Z,1003.50
2023-02-02T01:57:06.098Z,1003.52
2023-02-02T01:57:15.488Z,1003.55
2023-02-02T01:57:25.101Z,1003.46
2023-02-02T01:57:34.533Z,1003.51
2023-02-02T01:57:43.927Z,1003.58
2023-02-02T01:57:53.329Z,1003.64
2023-02-02T01:58:02.743Z,1003.53
2023-02-02T01:58:12.135Z,1003.52
2023-02-02T01:58:21.578Z,1003.47
2023-02-02T01:58:30.961Z,1003.57
2023-02-02T01:58:40.349Z,1003.54
2023-02-02T01:58:49.756Z,1003.55
2023-02-02T01:58:59.176Z,1003.54
2023-02-02T01:59:08.568Z,1003.46
2023-02-02T01:59:17.969Z,1003.53
2023-02-02T01:59:27.413Z,1003.47
2023-02-02T01:59:46.249Z,1003.56
2023-02-02T01:59:55.626Z,1003.45
2023-02-02T02:00:05.019Z,1003.53
2023-02-02T02:00:14.385Z,1003.49
2023-02-02T02:00:23.787Z,1003.49
2023-02-02T02:00:33.180Z,1003.47
2023-02-02T02:00:42.636Z,1003.48
2023-02-02T02:00:52.033Z,1003.54
2023-02-02T02:01:01.495Z,1003.57
2023-02-02T02:01:10.926Z,1003.60
2023-02-02T02:01:20.409Z,1003.49
2023-02-02T02:01:29.813Z,1003.53